logo dgac
Lunes 27 de Septiembre del 2021
Buscar por aerodromo o helipuerto
Ingrese nombre de aeródromo, localidad o designador OACI:

Aeródromo: Rodelillo (PUB) (SCRD)

Ubicación: Valparaiso, V Región, Chile (33º 04' 06'' S, 71º 33' 27'' W) Ver ubicación en el mapa

Pistas

Orientación Dimensión Pendiente Superficie Resistencia APCH THR RWY PAPI
01/19 850 x 20 1,00 ASPH 6.000 Kg No No No No
Horas de operación HJ
Elevación 335 m / 1100 ft
Otra Información Adm : Edwin Alegria
Uso : PUB
TEL Club Aereo Valparaiso-Viña del Mar 32 22611677
CEL +56933782065 / +56995440569
TEL AVGAS 3222611677

TEL DGAC
Aeródromo 224363586
AFIS/ARO CEL 982991600
JEFE AD CEL 991389945 (Coordinar exámenes teóricos)
email : aro.rodelillo@dgac.gob.cl

Ubicado a 6 km SE de Viña del Mar

Otra información ver AIP-Chile Volumen I AD 3.9-20.6-V
CCCM/FCCV Descargar
andera de Chile
Mapa de Rodelillo (PUB) (SCRD)

Último METAR

METAR SCRD 270100Z NIL

Último TAF

TAF SCRD 261017Z 2612/2624 17005KT CAVOK TX20/2618Z TN07/2612Z BECMG 2615/2617 20014KT TEMPO 2619/2622 18015G25KT

Últimas fotos cámaras

Imagen aerodromo Rodelillo (PUB) (SCRD) Sur tomada el 24-06-2021 02:52:09 Imagen aerodromo Rodelillo (PUB) (SCRD) Norte tomada el 24-06-2021 02:49:30

Último NOTAM

C3998/21 NOTAMR C3886/21 Q)SCEZ/QFMAU/IV/BO/A/000/999/3304S07133W005 A)SCRD B)2109051203 C)2109302313 D)DLY BTN 2200-FCCV E)MET NO AVBL